createdAt,value
2023-05-25T00:00:10.591Z,99.23
2023-05-25T00:02:38.384Z,100.00
2023-05-25T00:05:07.996Z,100.00
2023-05-25T00:07:34.673Z,100.00
2023-05-25T00:10:01.338Z,99.77
2023-05-25T00:12:28.080Z,100.00
2023-05-25T00:14:54.579Z,100.00
2023-05-25T00:17:21.810Z,99.81
2023-05-25T00:19:48.793Z,100.00
2023-05-25T00:22:15.649Z,100.00
2023-05-25T00:24:42.265Z,100.00
2023-05-25T00:27:08.730Z,100.00
2023-05-25T00:29:35.989Z,100.00
2023-05-25T00:32:03.086Z,100.00
2023-05-25T00:34:29.543Z,100.00
2023-05-25T00:36:56.186Z,100.00
2023-05-25T00:39:22.769Z,100.00
2023-05-25T00:41:50.124Z,100.00
2023-05-25T00:44:21.329Z,100.00
2023-05-25T00:46:50.652Z,100.00
2023-05-25T00:49:18.779Z,100.00
2023-05-25T00:51:46.951Z,100.00
2023-05-25T00:54:17.890Z,100.00
2023-05-25T00:56:47.383Z,100.00
2023-05-25T00:59:20.728Z,100.00
2023-05-25T01:01:48.994Z,100.00
2023-05-25T01:04:17.213Z,100.00
2023-05-25T01:06:48.665Z,100.00
2023-05-25T01:09:19.478Z,100.00
2023-05-25T01:11:50.228Z,100.00
2023-05-25T01:14:24.998Z,100.00
2023-05-25T01:16:52.209Z,100.00
2023-05-25T01:19:18.854Z,100.00
2023-05-25T01:21:59.758Z,100.00
2023-05-25T01:24:40.787Z,100.00
2023-05-25T01:27:30.560Z,100.00
2023-05-25T01:29:58.892Z,100.00
2023-05-25T01:32:26.453Z,100.00
2023-05-25T01:34:56.249Z,100.00
2023-05-25T01:37:24.591Z,100.00
2023-05-25T01:39:51.146Z,100.00
2023-05-25T01:42:17.591Z,100.00
2023-05-25T01:44:44.784Z,100.00
2023-05-25T01:47:24.185Z,100.00
2023-05-25T01:50:11.856Z,100.00
2023-05-25T01:52:48.766Z,100.00
2023-05-25T01:55:19.127Z,100.00
2023-05-25T01:57:50.869Z,100.00
2023-05-25T02:00:19.675Z,100.00
2023-05-25T02:02:48.070Z,100.00
2023-05-25T02:05:14.782Z,100.00
2023-05-25T02:07:41.351Z,100.00
2023-05-25T02:10:08.214Z,100.00
2023-05-25T02:12:34.776Z,100.00
2023-05-25T02:15:01.360Z,100.00
2023-05-25T02:17:30.118Z,100.00
2023-05-25T02:19:56.677Z,100.00
2023-05-25T02:22:23.725Z,100.00
2023-05-25T02:24:50.643Z,100.00
2023-05-25T02:27:17.099Z,100.00
2023-05-25T02:29:43.649Z,100.00
2023-05-25T02:32:10.076Z,100.00
2023-05-25T02:34:37.268Z,100.00
2023-05-25T02:37:04.004Z,100.00
2023-05-25T02:39:30.642Z,100.00
2023-05-25T02:41:58.915Z,100.00
2023-05-25T02:44:26.547Z,100.00
2023-05-25T02:46:53.161Z,100.00
2023-05-25T02:49:19.923Z,100.00
2023-05-25T02:51:47.932Z,100.00
2023-05-25T02:54:14.451Z,100.00
2023-05-25T02:56:42.366Z,100.00
2023-05-25T02:59:10.861Z,100.00
2023-05-25T03:01:37.349Z,100.00
2023-05-25T03:04:04.040Z,100.00
2023-05-25T03:06:36.668Z,100.00
2023-05-25T03:09:16.752Z,100.00
2023-05-25T03:11:45.806Z,100.00
2023-05-25T03:14:15.934Z,100.00
2023-05-25T03:16:48.030Z,100.00
2023-05-25T03:19:14.548Z,100.00
2023-05-25T03:21:41.318Z,100.00
2023-05-25T03:24:07.894Z,100.00
2023-05-25T03:26:34.384Z,100.00
2023-05-25T03:29:02.259Z,100.00
2023-05-25T03:31:29.382Z,100.00
2023-05-25T03:33:56.176Z,100.00
2023-05-25T03:36:27.414Z,100.00
2023-05-25T03:38:54.750Z,100.00
2023-05-25T03:41:21.778Z,100.00
2023-05-25T03:43:49.267Z,100.00
2023-05-25T03:46:15.925Z,100.00
2023-05-25T03:48:43.242Z,100.00
2023-05-25T03:51:09.753Z,100.00
2023-05-25T03:53:36.250Z,100.00
2023-05-25T03:56:02.695Z,100.00
2023-05-25T03:58:29.189Z,100.00
2023-05-25T04:00:56.233Z,100.00
2023-05-25T04:03:23.017Z,100.00
2023-05-25T04:05:50.080Z,100.00
2023-05-25T04:08:19.927Z,100.00
2023-05-25T04:10:47.081Z,100.00
2023-05-25T04:13:13.699Z,100.00
2023-05-25T04:15:40.601Z,100.00
2023-05-25T04:18:15.387Z,100.00
2023-05-25T04:20:42.025Z,100.00
2023-05-25T04:23:11.816Z,100.00
2023-05-25T04:25:39.599Z,100.00
2023-05-25T04:28:08.388Z,100.00
2023-05-25T04:30:46.057Z,100.00
2023-05-25T04:33:30.080Z,100.00
2023-05-25T04:36:14.196Z,100.00
2023-05-25T04:38:43.024Z,100.00
2023-05-25T04:41:09.877Z,100.00
2023-05-25T04:43:43.928Z,100.00
2023-05-25T04:46:19.334Z,100.00
2023-05-25T04:48:45.929Z,100.00
2023-05-25T04:51:12.693Z,100.00
2023-05-25T04:53:40.018Z,100.00
2023-05-25T04:56:06.803Z,99.91
2023-05-25T04:58:33.690Z,99.20
2023-05-25T05:01:00.441Z,98.86
2023-05-25T05:03:28.162Z,98.67
2023-05-25T05:05:54.890Z,98.39
2023-05-25T05:08:25.261Z,98.58
2023-05-25T05:10:51.998Z,98.00
2023-05-25T05:13:18.471Z,97.08
2023-05-25T05:15:45.165Z,97.40
2023-05-25T05:18:12.877Z,96.94
2023-05-25T05:20:39.476Z,96.66
2023-05-25T05:23:06.456Z,96.86
2023-05-25T05:25:33.663Z,96.56
2023-05-25T05:28:00.751Z,96.24
2023-05-25T05:30:33.812Z,95.29
2023-05-25T05:33:01.863Z,95.46
2023-05-25T05:35:33.440Z,96.50
2023-05-25T05:38:07.210Z,96.86
2023-05-25T05:40:33.743Z,97.18
2023-05-25T05:43:01.844Z,97.28
2023-05-25T05:45:28.272Z,97.03
2023-05-25T05:47:55.490Z,97.28
2023-05-25T05:50:22.425Z,97.03
2023-05-25T05:52:49.053Z,97.21
2023-05-25T05:55:15.727Z,96.12
2023-05-25T05:57:43.152Z,97.21
2023-05-25T06:00:10.431Z,96.96
2023-05-25T06:02:43.008Z,97.04
2023-05-25T06:05:13.217Z,96.71
2023-05-25T06:07:41.956Z,96.61
2023-05-25T06:10:09.014Z,96.36
2023-05-25T06:12:35.670Z,96.44
2023-05-25T06:15:02.759Z,95.81
2023-05-25T06:17:30.045Z,94.77
2023-05-25T06:19:56.653Z,94.91
2023-05-25T06:22:25.417Z,95.26
2023-05-25T06:24:52.212Z,94.66
2023-05-25T06:27:18.708Z,93.91
2023-05-25T06:29:45.442Z,93.65
2023-05-25T06:32:12.024Z,93.28
2023-05-25T06:34:38.751Z,92.00
2023-05-25T06:37:05.415Z,91.60
2023-05-25T06:39:32.078Z,91.46
2023-05-25T06:42:02.837Z,91.56
2023-05-25T06:44:32.380Z,90.08
2023-05-25T06:47:02.645Z,91.09
2023-05-25T06:49:30.715Z,91.02
2023-05-25T06:51:57.302Z,90.83
2023-05-25T06:54:23.902Z,90.72
2023-05-25T06:56:51.422Z,89.65
2023-05-25T06:59:18.373Z,88.94
2023-05-25T07:01:47.919Z,87.91
2023-05-25T07:04:14.403Z,88.42
2023-05-25T07:06:40.887Z,88.43
2023-05-25T07:09:07.450Z,86.00
2023-05-25T07:11:33.928Z,86.49
2023-05-25T07:14:00.420Z,87.31
2023-05-25T07:16:27.156Z,86.49
2023-05-25T07:18:53.718Z,87.62
2023-05-25T07:21:20.392Z,86.87
2023-05-25T07:23:47.091Z,85.44
2023-05-25T07:26:13.738Z,86.54
2023-05-25T07:28:40.267Z,86.36
2023-05-25T07:31:06.772Z,86.13
2023-05-25T07:33:33.348Z,86.13
2023-05-25T07:35:59.857Z,85.97
2023-05-25T07:38:26.632Z,85.86
2023-05-25T07:40:53.106Z,86.72
2023-05-25T07:43:21.353Z,87.47
2023-05-25T07:45:48.052Z,86.98
2023-05-25T07:48:14.505Z,85.28
2023-05-25T07:50:41.354Z,85.84
2023-05-25T07:53:07.763Z,85.51
2023-05-25T07:55:34.269Z,84.07
2023-05-25T07:58:00.934Z,84.43
2023-05-25T08:00:27.743Z,83.81
2023-05-25T08:02:56.365Z,84.67
2023-05-25T08:05:23.036Z,83.58
2023-05-25T08:07:49.514Z,82.93
2023-05-25T08:10:16.281Z,82.80
2023-05-25T08:12:49.508Z,83.48
2023-05-25T08:15:16.932Z,83.75
2023-05-25T08:17:43.689Z,83.73
2023-05-25T08:20:10.959Z,84.01
2023-05-25T08:22:37.464Z,83.45
2023-05-25T08:25:05.112Z,83.55
2023-05-25T08:27:33.644Z,82.90
2023-05-25T08:30:02.445Z,82.77
2023-05-25T08:32:29.088Z,82.15
2023-05-25T08:34:55.624Z,83.03
2023-05-25T08:37:22.533Z,82.32
2023-05-25T08:39:49.300Z,81.92
2023-05-25T08:42:15.849Z,82.06
2023-05-25T08:44:43.059Z,81.74
2023-05-25T08:47:11.774Z,81.64
2023-05-25T08:49:39.524Z,82.18
2023-05-25T08:52:13.962Z,81.16
2023-05-25T08:54:44.008Z,81.92
2023-05-25T08:57:20.856Z,82.79
2023-05-25T08:59:56.444Z,82.73
2023-05-25T09:03:14.164Z,82.24
2023-05-25T09:05:40.858Z,83.16
2023-05-25T09:08:08.580Z,81.96
2023-05-25T09:10:36.468Z,79.56
2023-05-25T09:13:19.090Z,79.23
2023-05-25T09:15:49.203Z,77.53
2023-05-25T09:18:15.848Z,77.71
2023-05-25T09:20:44.335Z,76.37
2023-05-25T09:23:14.362Z,75.38
2023-05-25T09:25:41.389Z,74.93
2023-05-25T09:28:25.761Z,74.38
2023-05-25T09:30:54.114Z,72.79
2023-05-25T09:33:20.998Z,72.38
2023-05-25T09:35:48.188Z,71.63
2023-05-25T09:38:17.942Z,71.99
2023-05-25T09:40:45.718Z,72.06
2023-05-25T09:43:17.324Z,70.85
2023-05-25T09:45:49.084Z,70.87
2023-05-25T09:48:16.014Z,71.40
2023-05-25T09:50:43.100Z,71.16
2023-05-25T09:53:10.981Z,70.54
2023-05-25T09:55:52.148Z,68.95
2023-05-25T09:58:23.668Z,70.22
2023-05-25T10:00:54.601Z,70.51
2023-05-25T10:03:22.417Z,70.17
2023-05-25T10:05:49.512Z,70.64
2023-05-25T10:08:21.899Z,71.08
2023-05-25T10:10:50.391Z,72.40
2023-05-25T10:13:26.839Z,72.55
2023-05-25T10:15:54.713Z,73.22
2023-05-25T10:18:28.465Z,72.87
2023-05-25T10:21:03.187Z,72.98
2023-05-25T10:23:41.629Z,71.84
2023-05-25T10:26:09.353Z,70.49
2023-05-25T10:28:37.322Z,70.12
2023-05-25T10:31:04.775Z,69.87
2023-05-25T10:33:32.621Z,69.53
2023-05-25T10:36:10.022Z,69.51
2023-05-25T10:38:40.326Z,69.68
2023-05-25T10:41:09.708Z,69.99
2023-05-25T10:43:37.128Z,68.90
2023-05-25T10:46:06.161Z,68.96
2023-05-25T10:48:37.366Z,68.73
2023-05-25T10:51:04.573Z,68.36
2023-05-25T10:53:31.070Z,69.31
2023-05-25T10:56:02.660Z,69.13
2023-05-25T10:58:30.114Z,69.09
2023-05-25T11:00:59.591Z,69.64
2023-05-25T11:03:45.152Z,68.40
2023-05-25T11:06:15.625Z,67.94
2023-05-25T11:08:55.055Z,67.19
2023-05-25T11:11:22.764Z,67.18
2023-05-25T11:13:50.529Z,66.61
2023-05-25T11:16:22.087Z,66.03
2023-05-25T11:18:53.373Z,65.69
2023-05-25T11:21:27.138Z,64.77
2023-05-25T11:23:54.631Z,65.20
2023-05-25T11:26:22.767Z,64.89
2023-05-25T11:28:51.146Z,65.08
2023-05-25T11:31:29.932Z,64.64
2023-05-25T11:34:02.046Z,65.50
2023-05-25T11:36:33.514Z,64.23
2023-05-25T11:39:11.620Z,64.07
2023-05-25T11:42:02.213Z,62.92
2023-05-25T11:44:31.582Z,62.75
2023-05-25T11:47:02.187Z,62.20
2023-05-25T11:49:29.133Z,61.59
2023-05-25T11:51:57.309Z,61.53
2023-05-25T11:54:28.191Z,61.46
2023-05-25T11:56:58.978Z,59.99
2023-05-25T11:59:28.221Z,59.12
2023-05-25T12:02:03.677Z,58.11
2023-05-25T12:04:32.816Z,57.45
2023-05-25T12:07:07.674Z,55.09
2023-05-25T12:09:35.221Z,52.93
2023-05-25T12:12:06.129Z,54.19
2023-05-25T12:14:35.919Z,55.66
2023-05-25T12:17:02.506Z,56.21
2023-05-25T12:19:29.461Z,55.33
2023-05-25T12:21:56.801Z,56.06
2023-05-25T12:24:23.377Z,55.23
2023-05-25T12:26:51.643Z,54.96
2023-05-25T12:29:18.151Z,55.62
2023-05-25T12:31:44.829Z,55.39
2023-05-25T12:34:16.354Z,55.09
2023-05-25T12:36:45.057Z,56.60
2023-05-25T12:39:13.797Z,56.59
2023-05-25T12:41:47.480Z,54.03
2023-05-25T12:44:18.187Z,53.97
2023-05-25T12:46:44.807Z,54.09
2023-05-25T12:49:26.820Z,55.57
2023-05-25T12:51:53.609Z,55.59
2023-05-25T12:54:43.912Z,57.17
2023-05-25T12:57:15.055Z,56.42
2023-05-25T12:59:46.292Z,55.57
2023-05-25T13:02:14.637Z,55.32
2023-05-25T13:04:42.109Z,55.09
2023-05-25T13:07:09.903Z,56.16
2023-05-25T13:09:37.644Z,55.20
2023-05-25T13:12:04.580Z,53.23
2023-05-25T13:14:31.161Z,53.47
2023-05-25T13:16:57.966Z,52.69
2023-05-25T13:19:25.953Z,52.54
2023-05-25T13:21:53.341Z,51.67
2023-05-25T13:24:19.758Z,49.74
2023-05-25T13:26:49.193Z,50.79
2023-05-25T13:29:17.403Z,49.41
2023-05-25T13:31:44.275Z,50.41
2023-05-25T13:34:10.844Z,49.89
2023-05-25T13:36:37.418Z,49.47
2023-05-25T13:39:05.212Z,49.18
2023-05-25T13:41:31.785Z,48.16
2023-05-25T13:43:58.408Z,47.02
2023-05-25T13:46:34.331Z,47.89
2023-05-25T13:49:02.694Z,47.72
2023-05-25T13:51:29.598Z,48.00
2023-05-25T13:53:56.016Z,47.70
2023-05-25T13:56:23.225Z,47.08
2023-05-25T13:58:49.803Z,47.78
2023-05-25T14:01:16.397Z,48.21
2023-05-25T14:03:43.155Z,49.03
2023-05-25T14:06:09.653Z,48.32
2023-05-25T14:08:36.100Z,47.95
2023-05-25T14:11:02.996Z,47.06
2023-05-25T14:13:29.898Z,48.16
2023-05-25T14:15:56.454Z,46.50
2023-05-25T14:18:23.071Z,47.12
2023-05-25T14:20:49.675Z,46.62
2023-05-25T14:23:18.346Z,46.35
2023-05-25T14:25:46.570Z,45.82
2023-05-25T14:28:13.542Z,45.87
2023-05-25T14:30:40.095Z,46.33
2023-05-25T14:33:06.677Z,46.21
2023-05-25T14:35:33.170Z,45.43
2023-05-25T14:37:59.913Z,46.37
2023-05-25T14:40:26.494Z,47.17
2023-05-25T14:42:55.804Z,45.49
2023-05-25T14:45:22.469Z,45.80
2023-05-25T14:47:50.630Z,45.02
2023-05-25T14:50:18.447Z,45.02
2023-05-25T14:52:45.005Z,45.72
2023-05-25T14:55:11.510Z,46.45
2023-05-25T14:57:37.931Z,47.13
2023-05-25T15:00:04.769Z,46.87
2023-05-25T15:02:31.372Z,47.52
2023-05-25T15:04:58.677Z,47.10
2023-05-25T15:07:25.140Z,48.42
2023-05-25T15:09:51.605Z,48.96
2023-05-25T15:12:18.037Z,50.20
2023-05-25T15:14:44.538Z,49.95
2023-05-25T15:17:11.027Z,49.50
2023-05-25T15:19:37.483Z,50.28
2023-05-25T15:22:04.196Z,49.17
2023-05-25T15:24:30.680Z,48.57
2023-05-25T15:26:57.459Z,48.95
2023-05-25T15:29:24.255Z,49.32
2023-05-25T15:31:52.866Z,49.86
2023-05-25T15:34:20.150Z,50.21
2023-05-25T15:36:46.634Z,51.09
2023-05-25T15:39:14.615Z,50.35
2023-05-25T15:41:41.934Z,51.06
2023-05-25T15:44:12.330Z,50.05
2023-05-25T15:46:40.268Z,50.79
2023-05-25T15:49:11.144Z,50.91
2023-05-25T15:51:41.852Z,51.96
2023-05-25T15:54:10.576Z,51.47
2023-05-25T15:56:39.299Z,51.64
2023-05-25T15:59:05.776Z,51.90
2023-05-25T16:01:34.353Z,52.32
2023-05-25T16:04:01.277Z,52.14
2023-05-25T16:06:28.085Z,51.78
2023-05-25T16:08:54.689Z,51.75
2023-05-25T16:11:21.168Z,51.55
2023-05-25T16:13:47.640Z,51.26
2023-05-25T16:16:14.275Z,51.95
2023-05-25T16:18:41.483Z,51.91
2023-05-25T16:21:07.956Z,52.80
2023-05-25T16:23:34.553Z,52.31
2023-05-25T16:26:01.056Z,52.01
2023-05-25T16:28:28.143Z,52.57
2023-05-25T16:30:54.721Z,52.98
2023-05-25T16:33:21.260Z,51.63
2023-05-25T16:35:48.030Z,52.57
2023-05-25T16:38:14.604Z,52.94
2023-05-25T16:40:41.064Z,53.42
2023-05-25T16:43:07.499Z,53.07
2023-05-25T16:45:34.043Z,53.42
2023-05-25T16:48:00.773Z,52.91
2023-05-25T16:50:27.392Z,53.80
2023-05-25T16:52:53.893Z,53.51
2023-05-25T16:55:20.623Z,53.54
2023-05-25T16:57:47.636Z,52.59
2023-05-25T17:00:14.638Z,53.30
2023-05-25T17:02:41.295Z,53.42
2023-05-25T17:05:08.515Z,53.75
2023-05-25T17:07:35.945Z,53.62
2023-05-25T17:10:02.607Z,54.03
2023-05-25T17:12:29.108Z,53.40
2023-05-25T17:14:56.200Z,53.31
2023-05-25T17:17:22.710Z,53.34
2023-05-25T17:19:50.655Z,53.33
2023-05-25T17:22:17.109Z,53.54
2023-05-25T17:24:43.668Z,52.82
2023-05-25T17:27:10.259Z,53.44
2023-05-25T17:29:37.704Z,53.98
2023-05-25T17:32:04.423Z,53.67
2023-05-25T17:34:30.968Z,54.19
2023-05-25T17:36:57.509Z,54.35
2023-05-25T17:39:23.960Z,53.81
2023-05-25T17:41:50.691Z,54.68
2023-05-25T17:44:17.389Z,54.91
2023-05-25T17:46:43.952Z,55.67
2023-05-25T17:49:10.561Z,55.82
2023-05-25T17:51:37.701Z,55.70
2023-05-25T17:54:04.370Z,55.44
2023-05-25T17:56:30.994Z,55.58
2023-05-25T17:58:57.665Z,56.46
2023-05-25T18:01:24.321Z,56.27
2023-05-25T18:03:53.237Z,56.88
2023-05-25T18:06:19.790Z,57.33
2023-05-25T18:08:46.276Z,57.13
2023-05-25T18:11:13.108Z,58.30
2023-05-25T18:13:39.539Z,56.94
2023-05-25T18:16:06.052Z,58.43
2023-05-25T18:18:32.590Z,58.86
2023-05-25T18:20:59.367Z,59.32
2023-05-25T18:23:26.242Z,59.79
2023-05-25T18:25:53.131Z,59.95
2023-05-25T18:28:19.611Z,60.54
2023-05-25T18:30:46.226Z,60.33
2023-05-25T18:33:12.836Z,60.79
2023-05-25T18:35:39.869Z,60.92
2023-05-25T18:38:06.756Z,61.12
2023-05-25T18:40:33.281Z,61.81
2023-05-25T18:43:00.013Z,61.59
2023-05-25T18:45:27.293Z,62.19
2023-05-25T18:47:54.078Z,62.72
2023-05-25T18:50:20.649Z,63.20
2023-05-25T18:52:50.924Z,63.03
2023-05-25T18:55:18.623Z,63.30
2023-05-25T18:57:45.072Z,63.63
2023-05-25T19:00:12.307Z,64.41
2023-05-25T19:02:38.995Z,64.69
2023-05-25T19:05:06.089Z,64.83
2023-05-25T19:07:37.756Z,65.45
2023-05-25T19:10:07.141Z,65.35
2023-05-25T19:12:33.646Z,66.23
2023-05-25T19:15:00.135Z,66.34
2023-05-25T19:17:27.223Z,66.66
2023-05-25T19:19:54.995Z,67.15
2023-05-25T19:22:21.499Z,67.78
2023-05-25T19:24:50.560Z,68.25
2023-05-25T19:27:24.084Z,68.24
2023-05-25T19:29:50.738Z,68.91
2023-05-25T19:32:17.491Z,68.77
2023-05-25T19:34:43.991Z,69.13
2023-05-25T19:37:11.400Z,69.58
2023-05-25T19:39:38.440Z,70.90
2023-05-25T19:42:04.944Z,70.75
2023-05-25T19:44:31.891Z,71.49
2023-05-25T19:46:59.847Z,71.51
2023-05-25T19:49:26.553Z,71.59
2023-05-25T19:51:53.072Z,71.59
2023-05-25T19:54:19.537Z,72.00
2023-05-25T19:56:46.318Z,72.81
2023-05-25T19:59:12.965Z,73.02
2023-05-25T20:01:39.536Z,73.75
2023-05-25T20:04:06.395Z,73.75
2023-05-25T20:06:33.668Z,74.01
2023-05-25T20:09:00.233Z,74.92
2023-05-25T20:11:27.758Z,74.85
2023-05-25T20:13:55.338Z,74.64
2023-05-25T20:16:22.560Z,74.54
2023-05-25T20:18:49.329Z,74.54
2023-05-25T20:21:15.996Z,75.32
2023-05-25T20:23:42.394Z,75.17
2023-05-25T20:26:08.820Z,75.30
2023-05-25T20:28:35.291Z,75.98
2023-05-25T20:31:01.762Z,76.74
2023-05-25T20:33:28.338Z,76.83
2023-05-25T20:35:54.964Z,77.06
2023-05-25T20:38:21.479Z,77.52
2023-05-25T20:40:48.135Z,77.65
2023-05-25T20:43:14.789Z,78.47
2023-05-25T20:45:41.318Z,78.13
2023-05-25T20:48:07.973Z,78.50
2023-05-25T20:50:34.440Z,78.37
2023-05-25T20:53:00.877Z,78.60
2023-05-25T20:55:27.587Z,78.71
2023-05-25T20:57:54.244Z,78.29
2023-05-25T21:00:22.000Z,79.03
2023-05-25T21:02:48.712Z,79.52
2023-05-25T21:05:15.487Z,79.43
2023-05-25T21:07:42.018Z,79.04
2023-05-25T21:10:08.827Z,79.68
2023-05-25T21:12:35.473Z,80.82
2023-05-25T21:15:02.019Z,79.67
2023-05-25T21:17:28.758Z,79.66
2023-05-25T21:19:55.524Z,80.39
2023-05-25T21:22:22.156Z,80.20
2023-05-25T21:24:49.873Z,80.40
2023-05-25T21:27:17.672Z,81.45
2023-05-25T21:29:44.094Z,81.20
2023-05-25T21:32:11.257Z,80.76
2023-05-25T21:34:37.689Z,81.28
2023-05-25T21:37:04.404Z,81.52
2023-05-25T21:39:30.805Z,81.36
2023-05-25T21:41:57.429Z,81.36
2023-05-25T21:44:23.874Z,81.80
2023-05-25T21:46:50.315Z,82.06
2023-05-25T21:49:16.913Z,82.05
2023-05-25T21:51:43.406Z,81.59
2023-05-25T21:54:09.828Z,82.08
2023-05-25T21:56:36.351Z,81.91
2023-05-25T21:59:02.872Z,82.02
2023-05-25T22:01:29.412Z,82.24
2023-05-25T22:03:56.439Z,82.25
2023-05-25T22:06:22.989Z,82.02
2023-05-25T22:08:49.713Z,82.42
2023-05-25T22:11:16.217Z,81.86
2023-05-25T22:13:48.614Z,82.22
2023-05-25T22:16:15.138Z,82.58
2023-05-25T22:18:43.013Z,82.43
2023-05-25T22:21:09.608Z,83.45
2023-05-25T22:23:36.143Z,83.63
2023-05-25T22:26:04.848Z,83.64
2023-05-25T22:28:31.391Z,84.52
2023-05-25T22:30:58.275Z,84.33
2023-05-25T22:33:24.787Z,84.21
2023-05-25T22:35:51.347Z,84.76
2023-05-25T22:38:17.823Z,84.32
2023-05-25T22:40:47.656Z,84.77
2023-05-25T22:43:14.783Z,84.54
2023-05-25T22:45:41.329Z,85.21
2023-05-25T22:48:09.044Z,84.87
2023-05-25T22:50:35.525Z,85.70
2023-05-25T22:53:02.252Z,85.43
2023-05-25T22:55:28.810Z,85.79
2023-05-25T22:57:55.419Z,86.24
2023-05-25T23:00:21.861Z,85.71
2023-05-25T23:02:48.848Z,86.08
2023-05-25T23:05:15.442Z,85.97
2023-05-25T23:07:41.920Z,85.74
2023-05-25T23:10:08.774Z,86.04
2023-05-25T23:12:35.248Z,86.42
2023-05-25T23:15:02.762Z,86.21
2023-05-25T23:17:29.266Z,85.82
2023-05-25T23:19:56.041Z,86.50
2023-05-25T23:22:22.674Z,86.40
2023-05-25T23:24:49.270Z,85.75
2023-05-25T23:27:15.944Z,85.71
2023-05-25T23:29:42.398Z,86.28
2023-05-25T23:32:08.915Z,87.43
2023-05-25T23:34:35.673Z,87.19
2023-05-25T23:37:03.330Z,87.63
2023-05-25T23:39:31.554Z,87.71
2023-05-25T23:41:58.090Z,87.21
2023-05-25T23:44:24.544Z,87.60
2023-05-25T23:46:51.164Z,87.05
2023-05-25T23:49:17.611Z,87.53
2023-05-25T23:51:44.228Z,87.95
2023-05-25T23:54:10.905Z,88.22
2023-05-25T23:56:37.973Z,88.73
2023-05-25T23:59:04.385Z,88.68
